sensor_id;sensor_type;location;lat;lon;timestamp;P1;durP1;ratioP1;P2;durP2;ratioP2
43664;SDS011;29263;48.172;11.484;2023-09-30T00:00:25;17.50;;;6.38;;
43664;SDS011;29263;48.172;11.484;2023-09-30T00:02:51;18.85;;;6.90;;
43664;SDS011;29263;48.172;11.484;2023-09-30T00:05:16;23.77;;;6.93;;
43664;SDS011;29263;48.172;11.484;2023-09-30T00:07:44;17.83;;;6.18;;
43664;SDS011;29263;48.172;11.484;2023-09-30T00:10:10;19.85;;;7.38;;
43664;SDS011;29263;48.172;11.484;2023-09-30T00:12:36;20.90;;;7.28;;
43664;SDS011;29263;48.172;11.484;2023-09-30T00:15:02;18.23;;;6.40;;
43664;SDS011;29263;48.172;11.484;2023-09-30T00:17:29;21.65;;;7.70;;
43664;SDS011;29263;48.172;11.484;2023-09-30T00:19:54;17.00;;;7.25;;
43664;SDS011;29263;48.172;11.484;2023-09-30T00:22:20;20.98;;;7.57;;
43664;SDS011;29263;48.172;11.484;2023-09-30T00:24:46;17.30;;;6.95;;
43664;SDS011;29263;48.172;11.484;2023-09-30T00:27:12;18.58;;;7.43;;
43664;SDS011;29263;48.172;11.484;2023-09-30T00:29:37;19.17;;;7.40;;
43664;SDS011;29263;48.172;11.484;2023-09-30T00:32:03;20.02;;;7.15;;
43664;SDS011;29263;48.172;11.484;2023-09-30T00:34:33;21.35;;;7.07;;
43664;SDS011;29263;48.172;11.484;2023-09-30T00:37:02;18.80;;;7.38;;
43664;SDS011;29263;48.172;11.484;2023-09-30T00:39:27;19.75;;;6.47;;
43664;SDS011;29263;48.172;11.484;2023-09-30T00:41:56;20.80;;;7.63;;
43664;SDS011;29263;48.172;11.484;2023-09-30T00:44:23;19.40;;;7.00;;
43664;SDS011;29263;48.172;11.484;2023-09-30T00:46:52;23.17;;;8.02;;
43664;SDS011;29263;48.172;11.484;2023-09-30T00:49:20;17.80;;;6.97;;
43664;SDS011;29263;48.172;11.484;2023-09-30T00:51:54;19.40;;;7.22;;
43664;SDS011;29263;48.172;11.484;2023-09-30T00:54:20;23.17;;;7.43;;
43664;SDS011;29263;48.172;11.484;2023-09-30T00:56:58;20.67;;;7.20;;
43664;SDS011;29263;48.172;11.484;2023-09-30T00:59:26;18.33;;;7.05;;
43664;SDS011;29263;48.172;11.484;2023-09-30T01:01:57;17.35;;;7.30;;
43664;SDS011;29263;48.172;11.484;2023-09-30T01:04:27;21.27;;;7.10;;
43664;SDS011;29263;48.172;11.484;2023-09-30T01:06:53;21.38;;;6.85;;
43664;SDS011;29263;48.172;11.484;2023-09-30T01:09:22;21.98;;;7.15;;
43664;SDS011;29263;48.172;11.484;2023-09-30T01:11:49;19.30;;;7.50;;
43664;SDS011;29263;48.172;11.484;2023-09-30T01:14:28;20.65;;;7.10;;
43664;SDS011;29263;48.172;11.484;2023-09-30T01:19:47;20.10;;;7.22;;
43664;SDS011;29263;48.172;11.484;2023-09-30T01:22:15;22.20;;;7.30;;
43664;SDS011;29263;48.172;11.484;2023-09-30T01:24:41;17.90;;;7.68;;
43664;SDS011;29263;48.172;11.484;2023-09-30T01:27:10;19.65;;;7.20;;
43664;SDS011;29263;48.172;11.484;2023-09-30T01:29:40;17.75;;;6.65;;
43664;SDS011;29263;48.172;11.484;2023-09-30T01:32:07;17.55;;;7.20;;
43664;SDS011;29263;48.172;11.484;2023-09-30T01:34:34;22.42;;;8.25;;
43664;SDS011;29263;48.172;11.484;2023-09-30T01:37:01;22.25;;;8.48;;
43664;SDS011;29263;48.172;11.484;2023-09-30T01:40:03;23.65;;;7.57;;
43664;SDS011;29263;48.172;11.484;2023-09-30T01:42:36;20.50;;;7.30;;
43664;SDS011;29263;48.172;11.484;2023-09-30T01:45:03;21.85;;;7.70;;
43664;SDS011;29263;48.172;11.484;2023-09-30T01:47:29;18.00;;;7.13;;
43664;SDS011;29263;48.172;11.484;2023-09-30T01:50:04;24.23;;;8.45;;
43664;SDS011;29263;48.172;11.484;2023-09-30T01:52:36;19.50;;;7.27;;
43664;SDS011;29263;48.172;11.484;2023-09-30T01:55:01;20.15;;;7.50;;
43664;SDS011;29263;48.172;11.484;2023-09-30T01:57:54;18.48;;;8.05;;
43664;SDS011;29263;48.172;11.484;2023-09-30T02:00:20;19.90;;;7.63;;
43664;SDS011;29263;48.172;11.484;2023-09-30T02:02:46;21.15;;;7.60;;
43664;SDS011;29263;48.172;11.484;2023-09-30T02:08:31;22.88;;;7.78;;
43664;SDS011;29263;48.172;11.484;2023-09-30T02:11:01;23.73;;;8.07;;
43664;SDS011;29263;48.172;11.484;2023-09-30T02:13:28;22.15;;;8.05;;
43664;SDS011;29263;48.172;11.484;2023-09-30T02:15:54;19.92;;;7.30;;
43664;SDS011;29263;48.172;11.484;2023-09-30T02:18:23;18.50;;;6.85;;
43664;SDS011;29263;48.172;11.484;2023-09-30T02:20:49;19.58;;;7.38;;
43664;SDS011;29263;48.172;11.484;2023-09-30T02:23:17;18.40;;;7.68;;
43664;SDS011;29263;48.172;11.484;2023-09-30T02:25:55;18.65;;;7.00;;
43664;SDS011;29263;48.172;11.484;2023-09-30T02:28:21;23.25;;;7.65;;
43664;SDS011;29263;48.172;11.484;2023-09-30T02:30:50;20.35;;;8.10;;
43664;SDS011;29263;48.172;11.484;2023-09-30T02:33:17;23.52;;;8.27;;
43664;SDS011;29263;48.172;11.484;2023-09-30T02:35:52;20.23;;;7.80;;
43664;SDS011;29263;48.172;11.484;2023-09-30T02:42:21;24.52;;;8.70;;
43664;SDS011;29263;48.172;11.484;2023-09-30T02:44:59;18.20;;;7.25;;
43664;SDS011;29263;48.172;11.484;2023-09-30T02:47:29;21.05;;;7.75;;
43664;SDS011;29263;48.172;11.484;2023-09-30T02:49:56;24.30;;;8.38;;
43664;SDS011;29263;48.172;11.484;2023-09-30T02:52:26;21.45;;;8.00;;
43664;SDS011;29263;48.172;11.484;2023-09-30T02:54:54;22.15;;;7.80;;
43664;SDS011;29263;48.172;11.484;2023-09-30T02:57:25;22.33;;;7.93;;
43664;SDS011;29263;48.172;11.484;2023-09-30T03:00:08;20.00;;;7.55;;
43664;SDS011;29263;48.172;11.484;2023-09-30T03:02:57;20.83;;;7.88;;
43664;SDS011;29263;48.172;11.484;2023-09-30T03:05:30;20.38;;;7.60;;
43664;SDS011;29263;48.172;11.484;2023-09-30T03:08:19;23.60;;;8.10;;
43664;SDS011;29263;48.172;11.484;2023-09-30T03:14:03;20.63;;;8.23;;
43664;SDS011;29263;48.172;11.484;2023-09-30T03:16:33;22.33;;;8.15;;
43664;SDS011;29263;48.172;11.484;2023-09-30T03:19:05;24.95;;;8.57;;
43664;SDS011;29263;48.172;11.484;2023-09-30T03:21:33;21.17;;;8.38;;
43664;SDS011;29263;48.172;11.484;2023-09-30T03:24:09;18.20;;;7.80;;
43664;SDS011;29263;48.172;11.484;2023-09-30T03:26:35;23.25;;;8.35;;
43664;SDS011;29263;48.172;11.484;2023-09-30T03:29:01;22.67;;;8.68;;
43664;SDS011;29263;48.172;11.484;2023-09-30T03:31:31;23.17;;;7.97;;
43664;SDS011;29263;48.172;11.484;2023-09-30T03:34:02;21.58;;;7.32;;
43664;SDS011;29263;48.172;11.484;2023-09-30T03:36:29;20.00;;;7.38;;
43664;SDS011;29263;48.172;11.484;2023-09-30T03:38:58;19.92;;;6.78;;
43664;SDS011;29263;48.172;11.484;2023-09-30T03:42:02;20.23;;;7.57;;
43664;SDS011;29263;48.172;11.484;2023-09-30T03:44:30;19.30;;;7.22;;
43664;SDS011;29263;48.172;11.484;2023-09-30T03:46:57;18.27;;;7.35;;
43664;SDS011;29263;48.172;11.484;2023-09-30T03:49:34;20.30;;;7.35;;
43664;SDS011;29263;48.172;11.484;2023-09-30T03:52:00;23.35;;;7.43;;
43664;SDS011;29263;48.172;11.484;2023-09-30T03:54:29;19.73;;;7.90;;
43664;SDS011;29263;48.172;11.484;2023-09-30T03:56:56;17.48;;;7.13;;
43664;SDS011;29263;48.172;11.484;2023-09-30T03:59:32;24.25;;;7.40;;
43664;SDS011;29263;48.172;11.484;2023-09-30T04:01:59;22.05;;;7.70;;
43664;SDS011;29263;48.172;11.484;2023-09-30T04:04:26;20.17;;;7.13;;
43664;SDS011;29263;48.172;11.484;2023-09-30T04:06:51;18.67;;;7.45;;
43664;SDS011;29263;48.172;11.484;2023-09-30T04:09:17;18.80;;;7.53;;
43664;SDS011;29263;48.172;11.484;2023-09-30T04:11:46;22.73;;;8.18;;
43664;SDS011;29263;48.172;11.484;2023-09-30T04:14:15;19.87;;;7.83;;
43664;SDS011;29263;48.172;11.484;2023-09-30T04:17:04;18.38;;;6.85;;
43664;SDS011;29263;48.172;11.484;2023-09-30T04:19:30;20.80;;;8.00;;
43664;SDS011;29263;48.172;11.484;2023-09-30T04:21:57;20.20;;;7.15;;
43664;SDS011;29263;48.172;11.484;2023-09-30T04:24:22;20.65;;;6.95;;
43664;SDS011;29263;48.172;11.484;2023-09-30T04:30:11;17.92;;;6.90;;
43664;SDS011;29263;48.172;11.484;2023-09-30T04:32:43;19.88;;;6.90;;
43664;SDS011;29263;48.172;11.484;2023-09-30T04:35:09;18.70;;;7.43;;
43664;SDS011;29263;48.172;11.484;2023-09-30T04:37:38;16.50;;;6.55;;
43664;SDS011;29263;48.172;11.484;2023-09-30T04:40:05;16.00;;;6.15;;
43664;SDS011;29263;48.172;11.484;2023-09-30T04:42:33;19.30;;;6.90;;
43664;SDS011;29263;48.172;11.484;2023-09-30T04:45:01;19.07;;;6.90;;
43664;SDS011;29263;48.172;11.484;2023-09-30T04:47:29;17.45;;;6.10;;
43664;SDS011;29263;48.172;11.484;2023-09-30T04:49:55;20.05;;;7.03;;
43664;SDS011;29263;48.172;11.484;2023-09-30T04:52:23;18.42;;;7.05;;
43664;SDS011;29263;48.172;11.484;2023-09-30T04:54:52;17.52;;;7.07;;
43664;SDS011;29263;48.172;11.484;2023-09-30T04:57:18;16.80;;;6.45;;
43664;SDS011;29263;48.172;11.484;2023-09-30T04:59:45;20.33;;;7.43;;
43664;SDS011;29263;48.172;11.484;2023-09-30T05:02:11;18.00;;;6.53;;
43664;SDS011;29263;48.172;11.484;2023-09-30T05:04:40;19.13;;;6.35;;
43664;SDS011;29263;48.172;11.484;2023-09-30T05:07:08;22.92;;;6.00;;
43664;SDS011;29263;48.172;11.484;2023-09-30T05:09:37;20.23;;;5.78;;
43664;SDS011;29263;48.172;11.484;2023-09-30T05:12:03;16.83;;;6.47;;
43664;SDS011;29263;48.172;11.484;2023-09-30T05:14:29;20.45;;;6.80;;
43664;SDS011;29263;48.172;11.484;2023-09-30T05:16:56;19.73;;;7.35;;
43664;SDS011;29263;48.172;11.484;2023-09-30T05:19:25;14.90;;;5.93;;
43664;SDS011;29263;48.172;11.484;2023-09-30T05:21:51;18.75;;;6.88;;
43664;SDS011;29263;48.172;11.484;2023-09-30T05:24:17;18.25;;;6.28;;
43664;SDS011;29263;48.172;11.484;2023-09-30T05:26:46;17.13;;;6.63;;
43664;SDS011;29263;48.172;11.484;2023-09-30T05:29:13;16.63;;;6.13;;
43664;SDS011;29263;48.172;11.484;2023-09-30T05:31:39;15.93;;;6.10;;
43664;SDS011;29263;48.172;11.484;2023-09-30T05:34:14;17.70;;;6.18;;
43664;SDS011;29263;48.172;11.484;2023-09-30T05:37:04;17.60;;;6.25;;
43664;SDS011;29263;48.172;11.484;2023-09-30T05:43:02;15.98;;;5.55;;
43664;SDS011;29263;48.172;11.484;2023-09-30T05:45:40;17.92;;;5.68;;
43664;SDS011;29263;48.172;11.484;2023-09-30T05:48:15;16.48;;;5.82;;
43664;SDS011;29263;48.172;11.484;2023-09-30T05:50:41;19.63;;;6.28;;
43664;SDS011;29263;48.172;11.484;2023-09-30T05:53:31;15.10;;;6.07;;
43664;SDS011;29263;48.172;11.484;2023-09-30T05:56:01;16.13;;;5.90;;
43664;SDS011;29263;48.172;11.484;2023-09-30T05:58:41;16.15;;;6.03;;
43664;SDS011;29263;48.172;11.484;2023-09-30T06:01:09;17.70;;;6.53;;
43664;SDS011;29263;48.172;11.484;2023-09-30T06:03:42;19.42;;;5.90;;
43664;SDS011;29263;48.172;11.484;2023-09-30T06:13:01;17.88;;;5.72;;
43664;SDS011;29263;48.172;11.484;2023-09-30T06:15:34;17.98;;;5.03;;
43664;SDS011;29263;48.172;11.484;2023-09-30T06:18:10;15.40;;;5.13;;
43664;SDS011;29263;48.172;11.484;2023-09-30T06:20:44;13.32;;;5.13;;
43664;SDS011;29263;48.172;11.484;2023-09-30T06:23:14;16.13;;;4.93;;
43664;SDS011;29263;48.172;11.484;2023-09-30T06:25:42;13.27;;;5.00;;
43664;SDS011;29263;48.172;11.484;2023-09-30T06:28:11;16.23;;;4.80;;
43664;SDS011;29263;48.172;11.484;2023-09-30T06:30:53;14.43;;;4.82;;
43664;SDS011;29263;48.172;11.484;2023-09-30T06:33:19;12.77;;;4.93;;
43664;SDS011;29263;48.172;11.484;2023-09-30T06:35:46;15.13;;;4.53;;
43664;SDS011;29263;48.172;11.484;2023-09-30T06:38:18;15.95;;;5.18;;
43664;SDS011;29263;48.172;11.484;2023-09-30T06:40:47;12.35;;;4.70;;
43664;SDS011;29263;48.172;11.484;2023-09-30T06:43:13;13.27;;;4.55;;
43664;SDS011;29263;48.172;11.484;2023-09-30T06:45:42;11.27;;;4.38;;
43664;SDS011;29263;48.172;11.484;2023-09-30T06:48:08;12.40;;;4.38;;
43664;SDS011;29263;48.172;11.484;2023-09-30T06:50:43;11.77;;;4.40;;
43664;SDS011;29263;48.172;11.484;2023-09-30T06:53:10;15.25;;;5.10;;
43664;SDS011;29263;48.172;11.484;2023-09-30T06:55:37;12.48;;;4.60;;
43664;SDS011;29263;48.172;11.484;2023-09-30T06:58:04;12.05;;;4.78;;
43664;SDS011;29263;48.172;11.484;2023-09-30T07:00:32;12.95;;;4.65;;
43664;SDS011;29263;48.172;11.484;2023-09-30T07:02:59;12.82;;;4.55;;
43664;SDS011;29263;48.172;11.484;2023-09-30T07:05:25;14.57;;;4.78;;
43664;SDS011;29263;48.172;11.484;2023-09-30T07:07:51;13.52;;;4.50;;
43664;SDS011;29263;48.172;11.484;2023-09-30T07:10:16;12.85;;;4.43;;
43664;SDS011;29263;48.172;11.484;2023-09-30T07:12:42;15.45;;;5.15;;
43664;SDS011;29263;48.172;11.484;2023-09-30T07:15:08;10.90;;;4.47;;
43664;SDS011;29263;48.172;11.484;2023-09-30T07:17:34;11.55;;;4.50;;
43664;SDS011;29263;48.172;11.484;2023-09-30T07:20:00;14.32;;;4.53;;
43664;SDS011;29263;48.172;11.484;2023-09-30T07:22:27;10.77;;;4.03;;
43664;SDS011;29263;48.172;11.484;2023-09-30T07:24:52;10.77;;;4.40;;
43664;SDS011;29263;48.172;11.484;2023-09-30T07:27:18;11.40;;;4.60;;
43664;SDS011;29263;48.172;11.484;2023-09-30T07:29:44;11.77;;;4.72;;
43664;SDS011;29263;48.172;11.484;2023-09-30T07:32:10;11.85;;;4.55;;
43664;SDS011;29263;48.172;11.484;2023-09-30T07:34:35;14.23;;;4.28;;
43664;SDS011;29263;48.172;11.484;2023-09-30T07:37:01;10.25;;;4.07;;
43664;SDS011;29263;48.172;11.484;2023-09-30T07:39:27;12.48;;;4.22;;
43664;SDS011;29263;48.172;11.484;2023-09-30T07:41:52;11.35;;;4.03;;
43664;SDS011;29263;48.172;11.484;2023-09-30T07:44:18;10.05;;;3.88;;
43664;SDS011;29263;48.172;11.484;2023-09-30T07:46:43;10.20;;;3.80;;
43664;SDS011;29263;48.172;11.484;2023-09-30T07:49:10;10.45;;;4.20;;
43664;SDS011;29263;48.172;11.484;2023-09-30T07:51:35;10.07;;;3.70;;
43664;SDS011;29263;48.172;11.484;2023-09-30T07:54:03;10.40;;;3.90;;
43664;SDS011;29263;48.172;11.484;2023-09-30T07:56:29;10.00;;;4.03;;
43664;SDS011;29263;48.172;11.484;2023-09-30T07:58:54;10.05;;;3.78;;
43664;SDS011;29263;48.172;11.484;2023-09-30T08:01:20;8.43;;;3.03;;
43664;SDS011;29263;48.172;11.484;2023-09-30T08:03:46;8.68;;;3.67;;
43664;SDS011;29263;48.172;11.484;2023-09-30T08:06:12;9.57;;;3.55;;
43664;SDS011;29263;48.172;11.484;2023-09-30T08:08:37;8.70;;;3.17;;
43664;SDS011;29263;48.172;11.484;2023-09-30T08:11:03;8.50;;;3.20;;
43664;SDS011;29263;48.172;11.484;2023-09-30T08:13:29;11.07;;;3.95;;
43664;SDS011;29263;48.172;11.484;2023-09-30T08:15:57;11.13;;;4.10;;
43664;SDS011;29263;48.172;11.484;2023-09-30T08:18:23;11.73;;;4.18;;
43664;SDS011;29263;48.172;11.484;2023-09-30T08:20:49;11.90;;;4.13;;
43664;SDS011;29263;48.172;11.484;2023-09-30T08:23:14;10.90;;;3.72;;
43664;SDS011;29263;48.172;11.484;2023-09-30T08:25:40;9.20;;;3.53;;
43664;SDS011;29263;48.172;11.484;2023-09-30T08:28:06;9.82;;;3.65;;
43664;SDS011;29263;48.172;11.484;2023-09-30T08:30:34;9.35;;;4.18;;
43664;SDS011;29263;48.172;11.484;2023-09-30T08:33:00;8.50;;;3.03;;
43664;SDS011;29263;48.172;11.484;2023-09-30T08:35:26;8.50;;;3.72;;
43664;SDS011;29263;48.172;11.484;2023-09-30T08:37:51;9.15;;;3.83;;
43664;SDS011;29263;48.172;11.484;2023-09-30T08:40:20;8.65;;;3.85;;
43664;SDS011;29263;48.172;11.484;2023-09-30T08:45:18;9.20;;;3.78;;
43664;SDS011;29263;48.172;11.484;2023-09-30T08:47:44;10.50;;;4.07;;
43664;SDS011;29263;48.172;11.484;2023-09-30T08:50:15;9.52;;;3.80;;
43664;SDS011;29263;48.172;11.484;2023-09-30T08:52:41;9.45;;;3.70;;
43664;SDS011;29263;48.172;11.484;2023-09-30T08:55:10;9.80;;;3.55;;
43664;SDS011;29263;48.172;11.484;2023-09-30T08:57:37;12.30;;;4.50;;
43664;SDS011;29263;48.172;11.484;2023-09-30T09:00:05;9.95;;;3.72;;
43664;SDS011;29263;48.172;11.484;2023-09-30T09:02:35;9.35;;;3.17;;
43664;SDS011;29263;48.172;11.484;2023-09-30T09:05:01;9.68;;;3.85;;
43664;SDS011;29263;48.172;11.484;2023-09-30T09:07:27;9.13;;;3.63;;
43664;SDS011;29263;48.172;11.484;2023-09-30T09:10:04;10.80;;;3.75;;
43664;SDS011;29263;48.172;11.484;2023-09-30T09:12:34;10.38;;;4.07;;
43664;SDS011;29263;48.172;11.484;2023-09-30T09:15:02;9.98;;;3.28;;
43664;SDS011;29263;48.172;11.484;2023-09-30T09:17:39;8.48;;;3.50;;
43664;SDS011;29263;48.172;11.484;2023-09-30T09:20:16;8.40;;;3.45;;
43664;SDS011;29263;48.172;11.484;2023-09-30T09:22:47;10.43;;;3.70;;
43664;SDS011;29263;48.172;11.484;2023-09-30T09:25:16;11.00;;;3.67;;
43664;SDS011;29263;48.172;11.484;2023-09-30T09:27:41;8.57;;;3.63;;
43664;SDS011;29263;48.172;11.484;2023-09-30T09:30:14;10.05;;;3.50;;
43664;SDS011;29263;48.172;11.484;2023-09-30T09:32:51;11.00;;;3.53;;
43664;SDS011;29263;48.172;11.484;2023-09-30T09:35:23;9.02;;;3.67;;
43664;SDS011;29263;48.172;11.484;2023-09-30T09:37:57;7.93;;;3.00;;
43664;SDS011;29263;48.172;11.484;2023-09-30T09:40:28;10.00;;;3.42;;
43664;SDS011;29263;48.172;11.484;2023-09-30T09:42:56;7.80;;;3.63;;
43664;SDS011;29263;48.172;11.484;2023-09-30T09:45:22;8.70;;;3.55;;
43664;SDS011;29263;48.172;11.484;2023-09-30T09:47:50;8.27;;;3.20;;
43664;SDS011;29263;48.172;11.484;2023-09-30T09:50:20;8.45;;;3.17;;
43664;SDS011;29263;48.172;11.484;2023-09-30T09:52:48;7.35;;;3.72;;
43664;SDS011;29263;48.172;11.484;2023-09-30T09:55:20;9.35;;;3.15;;
43664;SDS011;29263;48.172;11.484;2023-09-30T09:57:47;8.50;;;3.28;;
43664;SDS011;29263;48.172;11.484;2023-09-30T10:00:17;7.88;;;3.17;;
43664;SDS011;29263;48.172;11.484;2023-09-30T10:02:46;8.55;;;3.35;;
43664;SDS011;29263;48.172;11.484;2023-09-30T10:05:12;9.05;;;3.30;;
43664;SDS011;29263;48.172;11.484;2023-09-30T10:07:55;6.88;;;2.45;;
43664;SDS011;29263;48.172;11.484;2023-09-30T10:10:22;8.63;;;3.45;;
43664;SDS011;29263;48.172;11.484;2023-09-30T10:12:49;6.28;;;2.88;;
43664;SDS011;29263;48.172;11.484;2023-09-30T10:20:38;6.68;;;2.35;;
43664;SDS011;29263;48.172;11.484;2023-09-30T10:26:33;7.22;;;2.97;;
43664;SDS011;29263;48.172;11.484;2023-09-30T10:28:43;7.30;;;2.78;;
43664;SDS011;29263;48.172;11.484;2023-09-30T10:31:12;6.37;;;2.77;;
43664;SDS011;29263;48.172;11.484;2023-09-30T10:39:01;7.20;;;2.42;;
43664;SDS011;29263;48.172;11.484;2023-09-30T10:51:49;5.53;;;2.03;;
43664;SDS011;29263;48.172;11.484;2023-09-30T10:54:21;5.68;;;2.25;;
43664;SDS011;29263;48.172;11.484;2023-09-30T10:56:52;6.35;;;2.10;;
43664;SDS011;29263;48.172;11.484;2023-09-30T10:59:27;9.05;;;3.38;;
43664;SDS011;29263;48.172;11.484;2023-09-30T11:01:55;6.45;;;3.20;;
43664;SDS011;29263;48.172;11.484;2023-09-30T11:04:21;7.28;;;2.35;;
43664;SDS011;29263;48.172;11.484;2023-09-30T11:06:47;5.18;;;2.17;;
43664;SDS011;29263;48.172;11.484;2023-09-30T11:09:16;5.93;;;2.30;;
43664;SDS011;29263;48.172;11.484;2023-09-30T11:11:43;6.18;;;2.28;;
43664;SDS011;29263;48.172;11.484;2023-09-30T11:16:55;4.40;;;2.03;;
43664;SDS011;29263;48.172;11.484;2023-09-30T11:19:22;8.90;;;3.10;;
43664;SDS011;29263;48.172;11.484;2023-09-30T11:21:49;7.07;;;2.88;;
43664;SDS011;29263;48.172;11.484;2023-09-30T11:24:16;7.10;;;2.40;;
43664;SDS011;29263;48.172;11.484;2023-09-30T11:26:42;7.57;;;3.17;;
43664;SDS011;29263;48.172;11.484;2023-09-30T11:29:09;6.30;;;2.40;;
43664;SDS011;29263;48.172;11.484;2023-09-30T11:31:39;6.30;;;2.60;;
43664;SDS011;29263;48.172;11.484;2023-09-30T11:36:34;6.53;;;2.28;;
43664;SDS011;29263;48.172;11.484;2023-09-30T11:39:00;7.57;;;2.65;;
43664;SDS011;29263;48.172;11.484;2023-09-30T11:41:33;5.53;;;2.53;;
43664;SDS011;29263;48.172;11.484;2023-09-30T11:44:05;7.95;;;3.10;;
43664;SDS011;29263;48.172;11.484;2023-09-30T11:46:53;6.15;;;2.72;;
43664;SDS011;29263;48.172;11.484;2023-09-30T11:49:37;8.02;;;3.25;;
43664;SDS011;29263;48.172;11.484;2023-09-30T11:52:05;10.05;;;3.90;;
43664;SDS011;29263;48.172;11.484;2023-09-30T11:54:35;10.35;;;3.85;;
43664;SDS011;29263;48.172;11.484;2023-09-30T11:57:08;9.43;;;3.72;;
43664;SDS011;29263;48.172;11.484;2023-09-30T11:59:37;11.65;;;4.32;;
43664;SDS011;29263;48.172;11.484;2023-09-30T12:02:06;12.15;;;4.50;;
43664;SDS011;29263;48.172;11.484;2023-09-30T12:04:33;10.82;;;4.10;;
43664;SDS011;29263;48.172;11.484;2023-09-30T12:07:00;9.32;;;3.95;;
43664;SDS011;29263;48.172;11.484;2023-09-30T12:09:25;11.07;;;4.13;;
43664;SDS011;29263;48.172;11.484;2023-09-30T12:11:52;9.95;;;4.40;;
43664;SDS011;29263;48.172;11.484;2023-09-30T12:14:19;13.20;;;4.85;;
43664;SDS011;29263;48.172;11.484;2023-09-30T12:16:45;11.65;;;4.47;;
43664;SDS011;29263;48.172;11.484;2023-09-30T12:19:13;14.93;;;5.93;;
43664;SDS011;29263;48.172;11.484;2023-09-30T12:21:40;13.88;;;5.53;;
43664;SDS011;29263;48.172;11.484;2023-09-30T12:24:06;12.95;;;4.60;;
43664;SDS011;29263;48.172;11.484;2023-09-30T12:26:34;11.30;;;4.20;;
43664;SDS011;29263;48.172;11.484;2023-09-30T12:29:00;9.43;;;4.57;;
43664;SDS011;29263;48.172;11.484;2023-09-30T12:31:26;14.00;;;4.78;;
43664;SDS011;29263;48.172;11.484;2023-09-30T12:33:51;14.15;;;5.45;;
43664;SDS011;29263;48.172;11.484;2023-09-30T12:36:18;12.57;;;4.88;;
43664;SDS011;29263;48.172;11.484;2023-09-30T12:38:44;12.60;;;4.95;;
43664;SDS011;29263;48.172;11.484;2023-09-30T12:41:10;11.43;;;4.25;;
43664;SDS011;29263;48.172;11.484;2023-09-30T12:43:36;11.73;;;5.07;;
43664;SDS011;29263;48.172;11.484;2023-09-30T12:46:03;12.63;;;4.70;;
43664;SDS011;29263;48.172;11.484;2023-09-30T12:48:29;11.65;;;4.97;;
43664;SDS011;29263;48.172;11.484;2023-09-30T12:50:55;12.20;;;4.03;;
43664;SDS011;29263;48.172;11.484;2023-09-30T12:53:21;12.07;;;4.15;;
43664;SDS011;29263;48.172;11.484;2023-09-30T12:55:46;11.38;;;4.20;;
43664;SDS011;29263;48.172;11.484;2023-09-30T12:58:12;9.20;;;3.60;;
43664;SDS011;29263;48.172;11.484;2023-09-30T13:00:38;8.50;;;3.85;;
43664;SDS011;29263;48.172;11.484;2023-09-30T13:03:03;9.10;;;3.80;;
43664;SDS011;29263;48.172;11.484;2023-09-30T13:05:29;8.57;;;4.00;;
43664;SDS011;29263;48.172;11.484;2023-09-30T13:07:55;8.13;;;3.53;;
43664;SDS011;29263;48.172;11.484;2023-09-30T13:10:21;11.02;;;4.00;;
43664;SDS011;29263;48.172;11.484;2023-09-30T13:12:47;13.13;;;5.05;;
43664;SDS011;29263;48.172;11.484;2023-09-30T13:15:14;12.40;;;4.63;;
43664;SDS011;29263;48.172;11.484;2023-09-30T13:17:40;12.18;;;5.07;;
43664;SDS011;29263;48.172;11.484;2023-09-30T13:20:07;10.60;;;4.97;;
43664;SDS011;29263;48.172;11.484;2023-09-30T13:22:34;11.55;;;4.53;;
43664;SDS011;29263;48.172;11.484;2023-09-30T13:25:03;14.02;;;4.82;;
43664;SDS011;29263;48.172;11.484;2023-09-30T13:27:30;12.52;;;4.20;;
43664;SDS011;29263;48.172;11.484;2023-09-30T13:29:56;11.60;;;5.00;;
43664;SDS011;29263;48.172;11.484;2023-09-30T13:32:23;14.32;;;4.40;;
43664;SDS011;29263;48.172;11.484;2023-09-30T13:34:52;10.65;;;4.35;;
43664;SDS011;29263;48.172;11.484;2023-09-30T13:37:18;12.05;;;4.70;;
43664;SDS011;29263;48.172;11.484;2023-09-30T13:39:43;11.40;;;4.47;;
43664;SDS011;29263;48.172;11.484;2023-09-30T13:42:09;12.52;;;4.40;;
43664;SDS011;29263;48.172;11.484;2023-09-30T13:44:34;12.23;;;4.65;;
43664;SDS011;29263;48.172;11.484;2023-09-30T13:47:01;12.05;;;4.45;;
43664;SDS011;29263;48.172;11.484;2023-09-30T13:49:27;10.48;;;4.30;;
43664;SDS011;29263;48.172;11.484;2023-09-30T13:51:53;11.60;;;4.63;;
43664;SDS011;29263;48.172;11.484;2023-09-30T13:54:19;11.23;;;4.38;;
43664;SDS011;29263;48.172;11.484;2023-09-30T13:56:44;10.25;;;4.20;;
43664;SDS011;29263;48.172;11.484;2023-09-30T13:59:10;10.95;;;4.63;;
43664;SDS011;29263;48.172;11.484;2023-09-30T14:01:36;11.73;;;4.63;;
43664;SDS011;29263;48.172;11.484;2023-09-30T14:04:01;9.40;;;4.30;;
43664;SDS011;29263;48.172;11.484;2023-09-30T14:06:28;10.70;;;3.97;;
43664;SDS011;29263;48.172;11.484;2023-09-30T14:08:55;10.00;;;3.80;;
43664;SDS011;29263;48.172;11.484;2023-09-30T14:11:20;10.63;;;4.25;;
43664;SDS011;29263;48.172;11.484;2023-09-30T14:13:46;9.00;;;4.07;;
43664;SDS011;29263;48.172;11.484;2023-09-30T14:16:11;8.80;;;3.80;;
43664;SDS011;29263;48.172;11.484;2023-09-30T14:18:37;9.05;;;4.10;;
43664;SDS011;29263;48.172;11.484;2023-09-30T14:21:04;13.38;;;4.88;;
43664;SDS011;29263;48.172;11.484;2023-09-30T14:23:30;13.43;;;4.97;;
43664;SDS011;29263;48.172;11.484;2023-09-30T14:25:56;8.15;;;3.97;;
43664;SDS011;29263;48.172;11.484;2023-09-30T14:28:23;11.88;;;4.63;;
43664;SDS011;29263;48.172;11.484;2023-09-30T14:30:48;10.00;;;4.90;;
43664;SDS011;29263;48.172;11.484;2023-09-30T14:33:18;11.90;;;4.55;;
43664;SDS011;29263;48.172;11.484;2023-09-30T14:35:46;9.00;;;4.10;;
43664;SDS011;29263;48.172;11.484;2023-09-30T14:38:13;10.98;;;4.47;;
43664;SDS011;29263;48.172;11.484;2023-09-30T14:40:39;10.98;;;4.38;;
43664;SDS011;29263;48.172;11.484;2023-09-30T14:43:06;13.30;;;4.30;;
43664;SDS011;29263;48.172;11.484;2023-09-30T14:45:36;10.77;;;4.93;;
43664;SDS011;29263;48.172;11.484;2023-09-30T14:48:02;11.90;;;4.60;;
43664;SDS011;29263;48.172;11.484;2023-09-30T14:50:28;12.73;;;4.78;;
43664;SDS011;29263;48.172;11.484;2023-09-30T14:52:54;10.73;;;4.45;;
43664;SDS011;29263;48.172;11.484;2023-09-30T14:55:20;11.63;;;4.95;;
43664;SDS011;29263;48.172;11.484;2023-09-30T14:57:45;12.18;;;4.85;;
43664;SDS011;29263;48.172;11.484;2023-09-30T15:00:12;10.90;;;4.20;;
43664;SDS011;29263;48.172;11.484;2023-09-30T15:02:38;10.40;;;4.53;;
43664;SDS011;29263;48.172;11.484;2023-09-30T15:05:05;11.82;;;4.55;;
43664;SDS011;29263;48.172;11.484;2023-09-30T15:07:31;10.88;;;4.60;;
43664;SDS011;29263;48.172;11.484;2023-09-30T15:09:57;9.93;;;4.22;;
43664;SDS011;29263;48.172;11.484;2023-09-30T15:12:23;13.13;;;4.43;;
43664;SDS011;29263;48.172;11.484;2023-09-30T15:14:48;9.85;;;3.78;;
43664;SDS011;29263;48.172;11.484;2023-09-30T15:17:14;11.57;;;4.82;;
43664;SDS011;29263;48.172;11.484;2023-09-30T15:19:40;11.45;;;4.07;;
43664;SDS011;29263;48.172;11.484;2023-09-30T15:22:05;12.48;;;4.35;;
43664;SDS011;29263;48.172;11.484;2023-09-30T15:24:31;14.35;;;4.25;;
43664;SDS011;29263;48.172;11.484;2023-09-30T15:26:56;11.35;;;4.30;;
43664;SDS011;29263;48.172;11.484;2023-09-30T15:29:22;11.38;;;4.60;;